createdAt,value
2022-07-25T00:00:50.571Z,70.69
2022-07-25T00:01:50.597Z,70.69
2022-07-25T00:02:50.518Z,70.69
2022-07-25T00:03:50.614Z,70.59
2022-07-25T00:04:50.560Z,70.69
2022-07-25T00:05:50.492Z,70.79
2022-07-25T00:06:50.472Z,70.79
2022-07-25T00:07:50.479Z,70.89
2022-07-25T00:08:50.458Z,71.09
2022-07-25T00:09:50.471Z,71.09
2022-07-25T00:10:50.432Z,71.09
2022-07-25T00:11:50.423Z,71.09
2022-07-25T00:12:50.414Z,71.19
2022-07-25T00:13:50.438Z,71.29
2022-07-25T00:14:50.429Z,71.48
2022-07-25T00:15:50.433Z,71.09
2022-07-25T00:16:50.425Z,71.22
2022-07-25T00:17:50.422Z,71.32
2022-07-25T00:18:50.353Z,71.12
2022-07-25T00:19:50.395Z,71.22
2022-07-25T00:20:50.353Z,71.12
2022-07-25T00:21:50.322Z,71.22
2022-07-25T00:22:50.303Z,71.32
2022-07-25T00:23:50.302Z,71.42
2022-07-25T00:24:50.282Z,71.42
2022-07-25T00:25:50.313Z,71.42
2022-07-25T00:26:50.264Z,71.12
2022-07-25T00:27:50.263Z,71.12
2022-07-25T00:28:50.244Z,71.22
2022-07-25T00:29:50.232Z,71.32
2022-07-25T00:30:50.389Z,71.42
2022-07-25T00:31:50.313Z,71.32
2022-07-25T00:32:50.273Z,71.62
2022-07-25T00:33:50.234Z,71.62
2022-07-25T00:34:50.183Z,71.72
2022-07-25T00:35:50.177Z,71.95
2022-07-25T00:36:50.173Z,72.16
2022-07-25T00:37:50.189Z,72.25
2022-07-25T00:38:50.158Z,72.45
2022-07-25T00:39:50.124Z,72.55
2022-07-25T00:40:54.191Z,72.45
2022-07-25T00:41:51.107Z,72.55
2022-07-25T00:42:50.101Z,72.65
2022-07-25T00:43:50.121Z,72.35
2022-07-25T00:44:50.085Z,72.35
2022-07-25T00:45:51.786Z,72.65
2022-07-25T00:46:50.115Z,72.55
2022-07-25T00:47:50.075Z,72.29
2022-07-25T00:48:50.090Z,72.39
2022-07-25T00:49:50.025Z,72.59
2022-07-25T00:50:50.016Z,72.49
2022-07-25T00:51:57.048Z,72.39
2022-07-25T00:52:49.996Z,72.69
2022-07-25T00:53:50.009Z,72.78
2022-07-25T00:54:49.998Z,72.78
2022-07-25T00:55:49.959Z,73.09
2022-07-25T00:56:49.956Z,72.78
2022-07-25T00:57:49.927Z,72.19
2022-07-25T00:58:49.929Z,72.19
2022-07-25T00:59:49.979Z,72.29
2022-07-25T01:00:49.940Z,71.99
2022-07-25T01:01:49.925Z,72.19
2022-07-25T01:02:50.838Z,72.29
2022-07-25T01:03:49.869Z,72.19
2022-07-25T01:04:49.858Z,72.19
2022-07-25T01:05:53.563Z,72.42
2022-07-25T01:06:49.883Z,72.42
2022-07-25T01:07:49.830Z,72.52
2022-07-25T01:08:49.821Z,72.82
2022-07-25T01:09:49.808Z,72.92
2022-07-25T01:10:49.829Z,72.52
2022-07-25T01:11:49.809Z,72.13
2022-07-25T01:12:49.779Z,72.32
2022-07-25T01:13:49.769Z,72.42
2022-07-25T01:14:49.766Z,72.42
2022-07-25T01:15:49.775Z,72.42
2022-07-25T01:16:49.769Z,72.02
2022-07-25T01:17:49.750Z,71.72
2022-07-25T01:18:49.719Z,71.83
2022-07-25T01:19:49.701Z,72.22
2022-07-25T01:20:49.700Z,72.22
2022-07-25T01:21:49.681Z,72.42
2022-07-25T01:22:49.702Z,72.62
2022-07-25T01:23:49.661Z,72.52
2022-07-25T01:24:49.681Z,72.52
2022-07-25T01:25:49.641Z,71.92
2022-07-25T01:26:49.630Z,72.13
2022-07-25T01:27:54.606Z,72.13
2022-07-25T01:28:50.611Z,72.22
2022-07-25T01:29:49.601Z,72.22
2022-07-25T01:30:49.704Z,71.92
2022-07-25T01:31:49.571Z,72.32
2022-07-25T01:32:49.570Z,72.02
2022-07-25T01:33:49.552Z,72.02
2022-07-25T01:34:49.541Z,71.92
2022-07-25T01:35:49.571Z,71.62
2022-07-25T01:36:49.529Z,71.72
2022-07-25T01:37:49.513Z,71.62
2022-07-25T01:38:49.504Z,71.62
2022-07-25T01:39:49.492Z,71.76
2022-07-25T01:40:49.481Z,71.76
2022-07-25T01:41:49.515Z,71.86
2022-07-25T01:42:49.464Z,71.76
2022-07-25T01:43:49.441Z,71.66
2022-07-25T01:44:49.451Z,71.76
2022-07-25T01:45:49.442Z,71.96
2022-07-25T01:46:49.572Z,71.96
2022-07-25T01:47:49.442Z,72.06
2022-07-25T01:48:49.432Z,72.16
2022-07-25T01:49:49.392Z,72.16
2022-07-25T01:50:49.380Z,72.49
2022-07-25T01:51:49.363Z,72.59
2022-07-25T01:52:49.353Z,72.89
2022-07-25T01:53:49.392Z,72.39
2022-07-25T01:54:49.350Z,72.69
2022-07-25T01:55:49.312Z,72.49
2022-07-25T01:56:49.313Z,72.09
2022-07-25T01:57:49.869Z,72.59
2022-07-25T01:58:49.331Z,72.89
2022-07-25T01:59:49.277Z,72.89
2022-07-25T02:00:49.273Z,72.49
2022-07-25T02:01:49.408Z,72.39
2022-07-25T02:02:49.250Z,72.29
2022-07-25T02:03:49.254Z,71.99
2022-07-25T02:04:49.296Z,71.89
2022-07-25T02:05:49.246Z,72.09
2022-07-25T02:06:49.233Z,72.09
2022-07-25T02:07:49.204Z,72.39
2022-07-25T02:08:49.183Z,72.59
2022-07-25T02:09:52.166Z,72.99
2022-07-25T02:10:50.191Z,72.79
2022-07-25T02:11:49.173Z,72.49
2022-07-25T02:12:49.143Z,72.39
2022-07-25T02:13:49.123Z,72.29
2022-07-25T02:14:49.124Z,72.39
2022-07-25T02:15:49.104Z,71.89
2022-07-25T02:16:49.199Z,71.79
2022-07-25T02:17:49.086Z,71.89
2022-07-25T02:18:49.073Z,72.09
2022-07-25T02:19:49.054Z,72.29
2022-07-25T02:20:49.054Z,72.49
2022-07-25T02:21:49.073Z,72.59
2022-07-25T02:22:49.055Z,72.79
2022-07-25T02:23:49.013Z,72.79
2022-07-25T02:24:49.013Z,72.29
2022-07-25T02:25:49.000Z,72.59
2022-07-25T02:26:49.074Z,72.69
2022-07-25T02:27:48.975Z,72.53
2022-07-25T02:28:48.966Z,72.53
2022-07-25T02:29:48.955Z,72.63
2022-07-25T02:30:49.105Z,72.63
2022-07-25T02:31:49.015Z,72.63
2022-07-25T02:32:48.925Z,73.03
2022-07-25T02:33:48.916Z,73.22
2022-07-25T02:34:48.906Z,72.92
2022-07-25T02:35:48.895Z,72.83
2022-07-25T02:36:48.885Z,73.03
2022-07-25T02:37:48.906Z,73.03
2022-07-25T02:38:48.856Z,73.06
2022-07-25T02:39:48.847Z,73.56
2022-07-25T02:40:48.942Z,73.96
2022-07-25T02:41:48.826Z,73.86
2022-07-25T02:42:48.816Z,73.56
2022-07-25T02:43:48.826Z,73.46
2022-07-25T02:44:48.796Z,73.66
2022-07-25T02:45:48.818Z,73.46
2022-07-25T02:46:48.776Z,73.66
2022-07-25T02:47:48.756Z,73.66
2022-07-25T02:48:48.900Z,73.66
2022-07-25T02:49:48.727Z,73.76
2022-07-25T02:50:48.735Z,73.56
2022-07-25T02:51:48.718Z,73.26
2022-07-25T02:52:48.706Z,73.06
2022-07-25T02:53:57.329Z,73.26
2022-07-25T02:54:49.719Z,73.16
2022-07-25T02:55:48.763Z,73.36
2022-07-25T02:56:48.667Z,73.36
2022-07-25T02:57:48.647Z,73.56
2022-07-25T02:58:48.697Z,73.46
2022-07-25T02:59:48.627Z,73.46
2022-07-25T03:00:48.682Z,73.56
2022-07-25T03:01:48.680Z,73.76
2022-07-25T03:02:48.628Z,73.86
2022-07-25T03:03:48.658Z,74.16
2022-07-25T03:04:48.610Z,73.76
2022-07-25T03:05:48.569Z,73.66
2022-07-25T03:06:48.558Z,73.96
2022-07-25T03:07:48.546Z,74.06
2022-07-25T03:08:48.538Z,74.06
2022-07-25T03:09:48.558Z,73.76
2022-07-25T03:10:48.528Z,73.76
2022-07-25T03:11:48.500Z,73.66
2022-07-25T03:12:48.498Z,73.76
2022-07-25T03:13:48.479Z,73.96
2022-07-25T03:14:48.478Z,74.76
2022-07-25T03:15:48.499Z,74.46
2022-07-25T03:16:48.465Z,74.56
2022-07-25T03:17:48.437Z,74.56
2022-07-25T03:18:48.428Z,74.46
2022-07-25T03:19:48.420Z,73.76
2022-07-25T03:20:48.429Z,73.66
2022-07-25T03:21:48.428Z,73.86
2022-07-25T03:22:48.387Z,73.86
2022-07-25T03:23:52.493Z,73.86
2022-07-25T03:24:48.367Z,74.66
2022-07-25T03:25:48.349Z,75.56
2022-07-25T03:26:48.349Z,74.56
2022-07-25T03:27:48.358Z,74.16
2022-07-25T03:28:48.329Z,73.66
2022-07-25T03:29:48.311Z,73.56
2022-07-25T03:30:48.301Z,73.46
2022-07-25T03:31:48.359Z,73.26
2022-07-25T03:32:48.279Z,73.06
2022-07-25T03:33:48.289Z,73.06
2022-07-25T03:34:48.260Z,73.36
2022-07-25T03:35:48.239Z,73.56
2022-07-25T03:36:48.239Z,73.16
2022-07-25T03:37:48.221Z,73.06
2022-07-25T03:38:48.209Z,73.16
2022-07-25T03:39:48.260Z,73.76
2022-07-25T03:40:48.197Z,73.56
2022-07-25T03:41:48.180Z,73.96
2022-07-25T03:42:48.169Z,74.87
2022-07-25T03:43:48.178Z,74.66
2022-07-25T03:44:48.150Z,74.76
2022-07-25T03:45:48.572Z,73.96
2022-07-25T03:46:48.131Z,73.76
2022-07-25T03:47:48.118Z,73.76
2022-07-25T03:48:48.173Z,73.86
2022-07-25T03:49:48.090Z,74.06
2022-07-25T03:50:48.139Z,74.13
2022-07-25T03:51:48.080Z,74.93
2022-07-25T03:52:48.059Z,75.02
2022-07-25T03:53:48.050Z,74.43
2022-07-25T03:54:48.061Z,74.06
2022-07-25T03:55:48.080Z,72.96
2022-07-25T03:56:48.020Z,73.26
2022-07-25T03:57:48.010Z,73.96
2022-07-25T03:58:48.000Z,74.26
2022-07-25T03:59:47.980Z,73.96
2022-07-25T04:00:48.056Z,73.86
2022-07-25T04:01:48.016Z,73.46
2022-07-25T04:02:47.996Z,72.86
2022-07-25T04:03:47.940Z,73.46
2022-07-25T04:04:47.960Z,74.76
2022-07-25T04:05:47.949Z,75.06
2022-07-25T04:06:47.961Z,75.26
2022-07-25T04:07:47.901Z,74.76
2022-07-25T04:08:47.901Z,74.16
2022-07-25T04:09:47.880Z,73.96
2022-07-25T04:10:47.903Z,74.37
2022-07-25T04:11:47.852Z,73.93
2022-07-25T04:12:47.841Z,73.83
2022-07-25T04:13:47.831Z,73.72
2022-07-25T04:14:47.823Z,73.93
2022-07-25T04:15:47.886Z,74.63
2022-07-25T04:16:47.851Z,73.83
2022-07-25T04:17:47.831Z,75.73
2022-07-25T04:18:47.811Z,74.83
2022-07-25T04:19:47.766Z,73.83
2022-07-25T04:20:47.783Z,73.43
2022-07-25T04:21:47.751Z,73.63
2022-07-25T04:22:47.803Z,73.33
2022-07-25T04:23:47.725Z,73.33
2022-07-25T04:24:47.748Z,73.03
2022-07-25T04:25:47.702Z,73.13
2022-07-25T04:26:47.693Z,72.92
2022-07-25T04:27:47.682Z,72.83
2022-07-25T04:28:47.711Z,72.92
2022-07-25T04:29:47.664Z,72.83
2022-07-25T04:30:47.684Z,72.89
2022-07-25T04:31:47.705Z,72.69
2022-07-25T04:32:47.643Z,72.79
2022-07-25T04:33:47.624Z,72.79
2022-07-25T04:34:47.603Z,72.99
2022-07-25T04:35:47.593Z,72.99
2022-07-25T04:36:47.614Z,72.99
2022-07-25T04:37:47.643Z,72.89
2022-07-25T04:38:47.563Z,73.09
2022-07-25T04:39:47.554Z,73.29
2022-07-25T04:40:47.545Z,72.89
2022-07-25T04:41:47.533Z,72.76
2022-07-25T04:42:47.521Z,72.66
2022-07-25T04:43:48.858Z,72.45
2022-07-25T04:44:47.493Z,72.66
2022-07-25T04:45:47.579Z,71.96
2022-07-25T04:46:47.473Z,72.06
2022-07-25T04:47:47.473Z,71.92
2022-07-25T04:48:47.509Z,71.72
2022-07-25T04:49:47.452Z,71.42
2022-07-25T04:50:47.435Z,71.22
2022-07-25T04:51:47.424Z,71.22
2022-07-25T04:52:47.415Z,71.22
2022-07-25T04:53:47.404Z,71.12
2022-07-25T04:54:47.420Z,70.72
2022-07-25T04:55:47.398Z,70.42
2022-07-25T04:56:47.364Z,70.09
2022-07-25T04:57:47.363Z,70.29
2022-07-25T04:58:47.375Z,69.99
2022-07-25T04:59:47.347Z,68.79
2022-07-25T05:00:47.573Z,69.09
2022-07-25T05:01:47.365Z,68.79
2022-07-25T05:02:47.304Z,68.59
2022-07-25T05:03:50.520Z,68.96
2022-07-25T05:04:47.285Z,69.26
2022-07-25T05:05:47.282Z,68.86
2022-07-25T05:06:47.294Z,68.26
2022-07-25T05:07:47.271Z,68.26
2022-07-25T05:08:47.270Z,68.16
2022-07-25T05:09:47.255Z,68.16
2022-07-25T05:10:47.216Z,68.16
2022-07-25T05:11:50.480Z,68.36
2022-07-25T05:12:48.205Z,67.96
2022-07-25T05:13:47.204Z,67.96
2022-07-25T05:14:47.195Z,68.56
2022-07-25T05:15:47.174Z,68.73
2022-07-25T05:16:47.231Z,68.83
2022-07-25T05:17:47.156Z,68.93
2022-07-25T05:18:47.135Z,68.73
2022-07-25T05:19:47.237Z,68.73
2022-07-25T05:20:47.116Z,69.13
2022-07-25T05:21:47.136Z,69.13
2022-07-25T05:22:47.128Z,69.13
2022-07-25T05:23:47.087Z,69.02
2022-07-25T05:24:47.076Z,69.02
2022-07-25T05:25:47.069Z,68.93
2022-07-25T05:26:47.056Z,68.93
2022-07-25T05:27:49.617Z,70.32
2022-07-25T05:28:47.060Z,69.20
2022-07-25T05:29:47.028Z,70.09
2022-07-25T05:30:47.011Z,70.29
2022-07-25T05:31:47.115Z,70.09
2022-07-25T05:32:47.000Z,69.20
2022-07-25T05:33:47.027Z,68.99
2022-07-25T05:34:46.991Z,69.20
2022-07-25T05:35:46.973Z,68.40
2022-07-25T05:36:47.510Z,69.09
2022-07-25T05:37:46.953Z,67.50
2022-07-25T05:38:46.928Z,68.40
2022-07-25T05:39:46.969Z,69.79
2022-07-25T05:40:46.925Z,69.99
2022-07-25T05:41:46.938Z,69.29
2022-07-25T05:42:46.880Z,68.70
2022-07-25T05:43:46.877Z,68.00
2022-07-25T05:44:46.857Z,67.66
2022-07-25T05:45:46.858Z,66.37
2022-07-25T05:46:46.873Z,66.17
2022-07-25T05:47:46.868Z,65.87
2022-07-25T05:48:46.912Z,65.97
2022-07-25T05:49:46.809Z,66.07
2022-07-25T05:50:46.801Z,64.28
2022-07-25T05:51:46.801Z,63.48
2022-07-25T05:52:46.810Z,63.85
2022-07-25T05:53:46.808Z,65.34
2022-07-25T05:54:46.765Z,65.74
2022-07-25T05:55:46.749Z,65.24
2022-07-25T05:56:46.752Z,65.14
2022-07-25T05:57:46.780Z,64.54
2022-07-25T05:58:46.711Z,63.55
2022-07-25T05:59:46.712Z,64.04
2022-07-25T06:00:46.705Z,64.25
2022-07-25T06:01:46.887Z,64.34
2022-07-25T06:02:46.946Z,64.34
2022-07-25T06:03:46.668Z,64.64
2022-07-25T06:04:46.652Z,64.34
2022-07-25T06:05:46.690Z,64.54
2022-07-25T06:06:46.630Z,64.54
2022-07-25T06:07:46.630Z,64.34
2022-07-25T06:08:46.672Z,64.34
2022-07-25T06:09:46.609Z,63.85
2022-07-25T06:10:46.590Z,64.45
2022-07-25T06:11:54.513Z,64.54
2022-07-25T06:12:48.690Z,64.84
2022-07-25T06:13:46.562Z,63.95
2022-07-25T06:14:46.751Z,64.15
2022-07-25T06:15:46.540Z,63.95
2022-07-25T06:16:46.645Z,64.25
2022-07-25T06:17:46.518Z,64.45
2022-07-25T06:18:46.510Z,64.64
2022-07-25T06:19:46.715Z,63.85
2022-07-25T06:20:46.491Z,64.15
2022-07-25T06:21:46.478Z,64.04
2022-07-25T06:22:46.471Z,64.15
2022-07-25T06:23:46.462Z,64.34
2022-07-25T06:24:46.441Z,65.31
2022-07-25T06:25:50.280Z,65.61
2022-07-25T06:26:46.427Z,65.21
2022-07-25T06:27:46.411Z,64.12
2022-07-25T06:28:46.395Z,64.31
2022-07-25T06:29:46.395Z,64.61
2022-07-25T06:30:46.383Z,63.62
2022-07-25T06:31:47.222Z,63.49
2022-07-25T06:32:46.352Z,63.59
2022-07-25T06:33:46.362Z,63.59
2022-07-25T06:34:46.342Z,63.09
2022-07-25T06:35:46.336Z,63.39
2022-07-25T06:36:46.403Z,62.99
2022-07-25T06:37:46.353Z,63.16
2022-07-25T06:38:46.301Z,63.26
2022-07-25T06:39:46.406Z,63.36
2022-07-25T06:40:46.277Z,63.46
2022-07-25T06:41:46.262Z,63.36
2022-07-25T06:42:46.260Z,62.66
2022-07-25T06:43:46.274Z,62.53
2022-07-25T06:44:46.224Z,62.04
2022-07-25T06:45:46.232Z,61.34
2022-07-25T06:46:46.252Z,60.74
2022-07-25T06:47:46.204Z,60.84
2022-07-25T06:48:46.338Z,60.52
2022-07-25T06:49:46.203Z,60.52
2022-07-25T06:50:46.162Z,61.01
2022-07-25T06:52:50.451Z,60.61
2022-07-25T06:53:50.472Z,60.78
2022-07-25T06:54:50.441Z,60.58
2022-07-25T06:55:50.441Z,59.89
2022-07-25T06:56:50.392Z,60.28
2022-07-25T06:57:50.392Z,59.69
2022-07-25T06:58:50.434Z,59.79
2022-07-25T06:59:50.372Z,59.89
2022-07-25T07:00:50.421Z,59.86
2022-07-25T07:01:51.795Z,59.86
2022-07-25T07:02:50.487Z,59.47
2022-07-25T07:03:50.366Z,59.56
2022-07-25T07:04:50.522Z,58.67
2022-07-25T07:05:50.305Z,59.07
2022-07-25T07:06:50.293Z,58.87
2022-07-25T07:07:50.302Z,59.27
2022-07-25T07:08:50.307Z,59.17
2022-07-25T07:09:50.283Z,59.47
2022-07-25T07:10:50.254Z,59.23
2022-07-25T07:11:50.273Z,58.84
2022-07-25T07:12:50.260Z,59.04
2022-07-25T07:13:50.215Z,58.84
2022-07-25T07:14:50.223Z,59.14
2022-07-25T07:15:50.420Z,59.83
2022-07-25T07:16:50.245Z,59.34
2022-07-25T07:17:50.214Z,58.84
2022-07-25T07:18:50.255Z,58.74
2022-07-25T07:19:50.180Z,57.85
2022-07-25T07:20:50.191Z,58.04
2022-07-25T07:21:50.134Z,58.34
2022-07-25T07:22:50.135Z,58.25
2022-07-25T07:23:53.501Z,58.44
2022-07-25T07:24:51.827Z,58.44
2022-07-25T07:25:50.094Z,57.95
2022-07-25T07:26:50.115Z,58.44
2022-07-25T07:27:50.075Z,58.54
2022-07-25T07:28:50.065Z,58.44
2022-07-25T07:29:50.047Z,57.62
2022-07-25T07:31:15.285Z,57.62
2022-07-25T07:31:51.101Z,57.92
2022-07-25T07:32:50.045Z,58.02
2022-07-25T07:33:50.015Z,58.02
2022-07-25T07:34:50.015Z,58.32
2022-07-25T07:35:49.987Z,58.72
2022-07-25T07:36:50.026Z,58.32
2022-07-25T07:37:49.967Z,59.01
2022-07-25T07:38:49.956Z,58.72
2022-07-25T07:39:49.980Z,58.72
2022-07-25T07:40:49.936Z,58.72
2022-07-25T07:41:49.967Z,58.72
2022-07-25T07:42:49.927Z,58.51
2022-07-25T07:43:49.915Z,58.78
2022-07-25T07:44:49.897Z,58.88
2022-07-25T07:45:49.888Z,58.78
2022-07-25T07:46:49.913Z,58.59
2022-07-25T07:47:49.949Z,57.79
2022-07-25T07:48:49.940Z,57.50
2022-07-25T07:49:50.474Z,57.59
2022-07-25T07:50:49.915Z,57.57
2022-07-25T07:51:49.998Z,57.27
2022-07-25T07:52:49.866Z,57.17
2022-07-25T07:53:49.857Z,57.07
2022-07-25T07:54:49.847Z,57.17
2022-07-25T07:55:49.878Z,57.24
2022-07-25T07:56:49.886Z,56.74
2022-07-25T07:57:49.845Z,56.65
2022-07-25T07:58:49.749Z,56.45
2022-07-25T07:59:49.740Z,56.13
2022-07-25T08:00:49.769Z,55.73
2022-07-25T08:01:49.808Z,55.33
2022-07-25T08:02:49.772Z,53.75
2022-07-25T08:03:49.700Z,53.55
2022-07-25T08:04:49.719Z,53.33
2022-07-25T08:05:49.680Z,53.92
2022-07-25T08:06:49.670Z,54.32
2022-07-25T08:07:49.649Z,54.02
2022-07-25T08:08:49.663Z,54.10
2022-07-25T08:09:49.681Z,54.19
2022-07-25T08:10:49.634Z,53.99
2022-07-25T08:11:49.619Z,53.89
2022-07-25T08:12:49.609Z,53.60
2022-07-25T08:13:49.600Z,52.91
2022-07-25T08:14:49.618Z,53.40
2022-07-25T08:15:49.619Z,52.81
2022-07-25T08:16:49.570Z,52.41
2022-07-25T08:17:49.552Z,51.13
2022-07-25T08:18:49.541Z,50.73
2022-07-25T08:19:49.598Z,50.63
2022-07-25T08:20:49.522Z,51.03
2022-07-25T08:21:49.512Z,51.13
2022-07-25T08:22:54.429Z,50.63
2022-07-25T08:23:50.485Z,50.43
2022-07-25T08:24:49.484Z,50.53
2022-07-25T08:25:49.501Z,50.04
2022-07-25T08:26:49.455Z,50.63
2022-07-25T08:27:49.442Z,50.53
2022-07-25T08:28:59.887Z,51.00
2022-07-25T08:29:50.423Z,51.30
2022-07-25T08:30:49.478Z,51.50
2022-07-25T08:31:49.562Z,51.50
2022-07-25T08:32:49.429Z,51.40
2022-07-25T08:33:49.379Z,51.89
2022-07-25T08:34:49.372Z,51.10
2022-07-25T08:35:49.390Z,51.59
2022-07-25T08:36:49.395Z,51.28
2022-07-25T08:37:49.343Z,50.78
2022-07-25T08:38:49.333Z,50.41
2022-07-25T08:39:49.313Z,50.31
2022-07-25T08:40:49.305Z,50.31
2022-07-25T08:41:51.012Z,50.21
2022-07-25T08:42:49.323Z,50.51
2022-07-25T08:43:49.287Z,50.41
2022-07-25T08:44:49.282Z,50.61
2022-07-25T08:45:49.287Z,50.71
2022-07-25T08:46:49.322Z,51.00
2022-07-25T08:47:49.234Z,51.00
2022-07-25T08:48:49.356Z,51.30
2022-07-25T08:49:49.228Z,51.70
2022-07-25T08:50:49.209Z,51.20
2022-07-25T08:51:51.709Z,50.81
2022-07-25T08:52:49.198Z,51.20
2022-07-25T08:53:49.177Z,50.71
2022-07-25T08:54:49.165Z,51.10
2022-07-25T08:55:49.145Z,51.30
2022-07-25T08:56:49.184Z,51.59
2022-07-25T08:57:49.136Z,51.59
2022-07-25T08:58:49.184Z,51.20
2022-07-25T08:59:49.123Z,51.59
2022-07-25T09:00:49.151Z,51.30
2022-07-25T09:01:49.201Z,51.00
2022-07-25T09:02:49.274Z,51.20
2022-07-25T09:03:49.075Z,51.20
2022-07-25T09:04:49.130Z,51.70
2022-07-25T09:05:49.071Z,51.50
2022-07-25T09:06:49.172Z,51.50
2022-07-25T09:07:49.058Z,51.89
2022-07-25T09:08:49.092Z,51.79
2022-07-25T09:09:49.015Z,52.09
2022-07-25T09:10:49.042Z,52.19
2022-07-25T09:11:48.986Z,52.58
2022-07-25T09:12:48.976Z,52.58
2022-07-25T09:13:48.957Z,52.39
2022-07-25T09:14:48.977Z,52.29
2022-07-25T09:15:49.559Z,52.58
2022-07-25T09:16:48.938Z,52.58
2022-07-25T09:17:48.916Z,51.99
2022-07-25T09:18:48.910Z,52.29
2022-07-25T09:19:48.905Z,52.61
2022-07-25T09:20:49.031Z,52.31
2022-07-25T09:21:50.029Z,52.41
2022-07-25T09:22:48.876Z,51.72
2022-07-25T09:23:48.879Z,51.92
2022-07-25T09:24:48.851Z,52.19
2022-07-25T09:25:48.838Z,52.29
2022-07-25T09:26:48.896Z,51.99
2022-07-25T09:27:48.816Z,51.79
2022-07-25T09:28:48.819Z,50.71
2022-07-25T09:29:48.799Z,50.71
2022-07-25T09:30:48.821Z,50.59
2022-07-25T09:31:48.776Z,50.61
2022-07-25T09:32:48.809Z,50.61
2022-07-25T09:33:48.759Z,50.81
2022-07-25T09:34:48.740Z,50.81
2022-07-25T09:35:48.730Z,50.71
2022-07-25T09:36:48.727Z,51.20
2022-07-25T09:37:48.830Z,50.81
2022-07-25T09:38:48.701Z,51.00
2022-07-25T09:39:48.746Z,50.59
2022-07-25T09:40:48.718Z,50.59
2022-07-25T09:41:48.700Z,50.59
2022-07-25T09:42:48.662Z,51.07
2022-07-25T09:43:48.708Z,51.07
2022-07-25T09:44:48.642Z,50.98
2022-07-25T09:45:48.708Z,50.88
2022-07-25T09:46:48.666Z,51.28
2022-07-25T09:47:48.600Z,50.98
2022-07-25T09:48:48.624Z,51.07
2022-07-25T09:49:48.610Z,51.28
2022-07-25T09:50:48.573Z,51.37
2022-07-25T09:51:48.572Z,51.18
2022-07-25T09:52:48.583Z,51.37
2022-07-25T09:53:48.542Z,51.77
2022-07-25T09:54:48.565Z,51.35
2022-07-25T09:55:48.522Z,51.45
2022-07-25T09:56:48.511Z,51.84
2022-07-25T09:57:48.502Z,51.94
2022-07-25T09:58:48.519Z,51.84
2022-07-25T09:59:48.480Z,51.25
2022-07-25T10:00:48.502Z,51.84
2022-07-25T10:01:48.526Z,51.25
2022-07-25T10:02:48.524Z,51.84
2022-07-25T10:03:48.462Z,51.75
2022-07-25T10:04:48.425Z,51.92
2022-07-25T10:05:48.449Z,52.01
2022-07-25T10:06:48.410Z,51.92
2022-07-25T10:07:48.393Z,52.21
2022-07-25T10:08:48.454Z,51.62
2022-07-25T10:09:48.372Z,52.21
2022-07-25T10:10:48.382Z,51.32
2022-07-25T10:11:48.353Z,51.05
2022-07-25T10:12:48.430Z,51.25
2022-07-25T10:13:48.353Z,51.84
2022-07-25T10:14:48.358Z,51.45
2022-07-25T10:15:48.305Z,51.84
2022-07-25T10:16:48.367Z,51.84
2022-07-25T10:17:48.284Z,51.84
2022-07-25T10:18:48.324Z,52.14
2022-07-25T10:19:52.949Z,52.44
2022-07-25T10:20:49.326Z,52.44
2022-07-25T10:21:48.243Z,51.94
2022-07-25T10:22:57.120Z,52.34
2022-07-25T10:23:49.274Z,52.44
2022-07-25T10:24:48.235Z,52.24
2022-07-25T10:25:49.271Z,51.94
2022-07-25T10:26:48.215Z,52.34
2022-07-25T10:27:48.192Z,52.66
2022-07-25T10:28:48.176Z,52.86
2022-07-25T10:29:48.156Z,52.95
2022-07-25T10:30:48.242Z,52.36
2022-07-25T10:31:51.441Z,52.56
2022-07-25T10:32:48.139Z,52.56
2022-07-25T10:33:48.117Z,52.66
2022-07-25T10:34:48.108Z,52.78
2022-07-25T10:35:48.095Z,53.08
2022-07-25T10:36:48.095Z,53.28
2022-07-25T10:37:49.867Z,53.40
2022-07-25T10:38:48.078Z,53.50
2022-07-25T10:39:48.090Z,53.80
2022-07-25T10:40:48.057Z,53.99
2022-07-25T10:41:48.039Z,54.10
2022-07-25T10:42:48.026Z,53.87
2022-07-25T10:43:48.829Z,53.97
2022-07-25T10:44:48.008Z,53.87
2022-07-25T10:45:48.113Z,53.47
2022-07-25T10:46:47.989Z,53.57
2022-07-25T10:47:47.978Z,52.98
2022-07-25T10:48:48.015Z,52.69
2022-07-25T10:50:15.171Z,53.30
2022-07-25T10:50:56.913Z,53.80
2022-07-25T10:51:48.937Z,53.47
2022-07-25T10:52:47.952Z,53.28
2022-07-25T10:53:47.949Z,53.47
2022-07-25T10:54:47.908Z,53.28
2022-07-25T10:56:04.843Z,53.47
2022-07-25T10:56:48.923Z,53.47
2022-07-25T10:58:15.155Z,53.77
2022-07-25T10:58:48.867Z,53.67
2022-07-25T10:59:47.878Z,53.67
2022-07-25T11:00:47.840Z,53.47
2022-07-25T11:01:47.863Z,53.08
2022-07-25T11:02:47.870Z,52.69
2022-07-25T11:03:47.814Z,52.88
2022-07-25T11:04:47.836Z,53.35
2022-07-25T11:05:47.788Z,52.95
2022-07-25T11:06:47.780Z,52.06
2022-07-25T11:08:11.142Z,52.46
2022-07-25T11:08:48.759Z,52.78
2022-07-25T11:09:47.789Z,53.28
2022-07-25T11:10:47.762Z,52.78
2022-07-25T11:11:47.729Z,52.69
2022-07-25T11:12:47.711Z,53.18
2022-07-25T11:13:47.710Z,53.25
2022-07-25T11:14:47.753Z,52.06
2022-07-25T11:15:47.694Z,52.26
2022-07-25T11:16:47.725Z,52.56
2022-07-25T11:17:47.692Z,52.06
2022-07-25T11:18:47.651Z,51.77
2022-07-25T11:19:47.650Z,51.89
2022-07-25T11:20:47.653Z,52.46
2022-07-25T11:21:47.623Z,52.46
2022-07-25T11:22:47.612Z,52.06
2022-07-25T11:23:47.604Z,52.46
2022-07-25T11:24:47.644Z,51.37
2022-07-25T11:25:47.584Z,51.57
2022-07-25T11:26:47.563Z,51.07
2022-07-25T11:27:47.562Z,51.37
2022-07-25T11:28:47.572Z,51.28
2022-07-25T11:29:47.564Z,51.15
2022-07-25T11:30:47.569Z,51.45
2022-07-25T11:31:47.588Z,50.76
2022-07-25T11:32:47.505Z,51.35
2022-07-25T11:33:47.491Z,51.15
2022-07-25T11:34:47.481Z,50.16
2022-07-25T11:35:47.482Z,50.07
2022-07-25T11:36:47.496Z,50.07
2022-07-25T11:37:49.284Z,49.87
2022-07-25T11:38:47.534Z,50.29
2022-07-25T11:39:47.465Z,50.29
2022-07-25T11:40:47.414Z,50.68
2022-07-25T11:41:47.413Z,50.29
2022-07-25T11:42:47.398Z,50.66
2022-07-25T11:43:47.395Z,50.36
2022-07-25T11:44:48.269Z,49.87
2022-07-25T11:45:47.397Z,50.36
2022-07-25T11:46:47.357Z,50.26
2022-07-25T11:47:47.357Z,50.56
2022-07-25T11:48:47.395Z,50.04
2022-07-25T11:49:47.344Z,50.14
2022-07-25T11:50:47.358Z,49.65
2022-07-25T11:51:47.355Z,49.27
2022-07-25T11:52:47.326Z,49.67
2022-07-25T11:53:47.297Z,49.27
2022-07-25T11:54:47.270Z,49.87
2022-07-25T11:55:47.305Z,49.77
2022-07-25T11:56:47.257Z,49.48
2022-07-25T11:57:47.258Z,49.65
2022-07-25T11:58:47.227Z,49.35
2022-07-25T11:59:47.238Z,49.05
2022-07-25T12:00:47.225Z,48.88
2022-07-25T12:01:47.476Z,49.48
2022-07-25T12:02:47.354Z,49.37
2022-07-25T12:03:50.431Z,49.49
2022-07-25T12:04:47.187Z,49.77
2022-07-25T12:05:47.168Z,50.16
2022-07-25T12:06:47.148Z,50.16
2022-07-25T12:07:47.147Z,49.45
2022-07-25T12:08:49.658Z,48.66
2022-07-25T12:09:47.168Z,49.27
2022-07-25T12:10:47.106Z,49.67
2022-07-25T12:11:47.112Z,50.56
2022-07-25T12:12:47.089Z,49.87
2022-07-25T12:13:47.069Z,49.77
2022-07-25T12:14:47.106Z,49.77
2022-07-25T12:15:47.150Z,50.07
2022-07-25T12:16:47.111Z,50.07
2022-07-25T12:17:47.058Z,49.87
2022-07-25T12:18:47.018Z,49.77
2022-07-25T12:19:47.021Z,50.36
2022-07-25T12:20:46.999Z,50.76
2022-07-25T12:21:47.051Z,50.95
2022-07-25T12:22:46.985Z,50.34
2022-07-25T12:23:46.978Z,49.94
2022-07-25T12:24:47.035Z,50.07
2022-07-25T12:25:46.956Z,50.76
2022-07-25T12:26:46.975Z,51.07
2022-07-25T12:27:46.970Z,50.98
2022-07-25T12:28:46.958Z,50.98
2022-07-25T12:29:46.951Z,51.47
2022-07-25T12:30:47.001Z,51.28
2022-07-25T12:31:46.936Z,51.77
2022-07-25T12:32:46.880Z,52.19
2022-07-25T12:33:46.895Z,52.09
2022-07-25T12:34:46.864Z,51.70
2022-07-25T12:35:46.850Z,52.09
2022-07-25T12:36:46.843Z,51.77
2022-07-25T12:37:47.970Z,52.06
2022-07-25T12:38:46.815Z,51.57
2022-07-25T12:39:46.812Z,51.37
2022-07-25T12:40:46.831Z,51.28
2022-07-25T12:41:46.863Z,51.77
2022-07-25T12:42:46.779Z,52.06
2022-07-25T12:43:46.775Z,52.06
2022-07-25T12:44:46.770Z,51.57
2022-07-25T12:45:46.804Z,52.06
2022-07-25T12:46:49.513Z,51.77
2022-07-25T12:47:46.728Z,51.54
2022-07-25T12:48:46.753Z,51.77
2022-07-25T12:49:46.722Z,52.44
2022-07-25T12:50:46.695Z,51.75
2022-07-25T12:51:46.732Z,52.04
2022-07-25T12:52:53.727Z,52.14
2022-07-25T12:53:46.660Z,52.56